Observation data for Muleshoe on 06/02/2020      Previous  Date  Next       Current Mesonet Observations  Soil Data  Daily Summary Page  Observations in Plain Language
KMUS 020500Z 16011G16KT 21/13 A3014 RMK A01 T02090131  RH  063%=      5-min Rain = 0
KMUS 020505Z 16012KT 21/13 A3014 RMK A01 T02100130  RH  063%=      5-min Rain = 0
KMUS 020510Z 16012KT 21/13 A3014 RMK A01 T02100129  RH  062%=      5-min Rain = 0
KMUS 020515Z 16011KT 21/13 A3014 RMK A01 T02080128  RH  063%=      5-min Rain = 0
KMUS 020520Z 16013KT 21/13 A3014 RMK A01 T02080128  RH  062%=      5-min Rain = 0
KMUS 020525Z 16012KT 21/13 A3014 RMK A01 T02080128  RH  062%=      5-min Rain = 0
KMUS 020530Z 17012KT 21/13 A3014 RMK A01 T02070127  RH  063%=      5-min Rain = 0
KMUS 020535Z 17013KT 21/13 A3014 RMK A01 T02060127  RH  063%=      5-min Rain = 0
KMUS 020540Z 17013KT 21/13 A3014 RMK A01 T02060127  RH  063%=      5-min Rain = 0
KMUS 020545Z 17012KT 21/13 A3014 RMK A01 T02050127  RH  063%=      5-min Rain = 0
KMUS 020550Z 17014KT 20/13 A3014 RMK A01 T02040127  RH  064%=      5-min Rain = 0
KMUS 020555Z 17012G17KT 20/13 A3014 RMK A01 T02020127  RH  064%=      5-min Rain = 0
KMUS 020600Z 17011KT 20/13 A3014 RMK A01 T02000127  RH  065%=      5-min Rain = 0
KMUS 020605Z 17011KT 20/13 A3014 RMK A01 T01980127  RH  066%=      5-min Rain = 0
KMUS 020610Z 17011KT 20/13 A3014 RMK A01 T01970127  RH  067%=      5-min Rain = 0
KMUS 020615Z 17010KT 20/13 A3014 RMK A01 T01950127  RH  067%=      5-min Rain = 0
KMUS 020620Z 17010KT 20/13 A3014 RMK A01 T01950128  RH  068%=      5-min Rain = 0
KMUS 020625Z 17011KT 19/13 A3014 RMK A01 T01940128  RH  068%=      5-min Rain = 0
KMUS 020630Z 17012KT 19/13 A3013 RMK A01 T01940129  RH  069%=      5-min Rain = 0
KMUS 020635Z 16012KT 19/13 A3013 RMK A01 T01930130  RH  070%=      5-min Rain = 0
KMUS 020640Z 16012G18KT 19/13 A3013 RMK A01 T01920131  RH  070%=      5-min Rain = 0
KMUS 020645Z 16014KT 19/13 A3012 RMK A01 T01920132  RH  071%=      5-min Rain = 0
KMUS 020650Z 15013KT 19/13 A3012 RMK A01 T01910133  RH  072%=      5-min Rain = 0
KMUS 020655Z 16011G17KT 19/13 A3012 RMK A01 T01900133  RH  072%=      5-min Rain = 0
KMUS 020700Z 17012KT 19/13 A3012 RMK A01 T01900133  RH  073%=      5-min Rain = 0
KMUS 020705Z 17011KT 19/13 A3012 RMK A01 T01890133  RH  073%=      5-min Rain = 0
KMUS 020710Z 17012KT 19/13 A3012 RMK A01 T01890134  RH  073%=      5-min Rain = 0
KMUS 020715Z 17012KT 19/13 A3012 RMK A01 T01890134  RH  073%=      5-min Rain = 0
KMUS 020720Z 18011KT 19/13 A3012 RMK A01 T01870133  RH  074%=      5-min Rain = 0
KMUS 020725Z 18011KT 19/13 A3012 RMK A01 T01860133  RH  074%=      5-min Rain = 0
KMUS 020730Z 18010KT 19/13 A3013 RMK A01 T01860133  RH  074%=      5-min Rain = 0
KMUS 020735Z 18009KT 18/13 A3013 RMK A01 T01840133  RH  075%=      5-min Rain = 0
KMUS 020740Z 19008KT 18/13 A3013 RMK A01 T01830132  RH  075%=      5-min Rain = 0
KMUS 020745Z 20006KT 18/13 A3013 RMK A01 T01810132  RH  076%=      5-min Rain = 0
KMUS 020750Z 20006KT 18/13 A3014 RMK A01 T01780131  RH  077%=      5-min Rain = 0
KMUS 020755Z 19006KT 18/13 A3013 RMK A01 T01770131  RH  078%=      5-min Rain = 0
KMUS 020800Z 19007KT 18/13 A3013 RMK A01 T01770132  RH  078%=      5-min Rain = 0
KMUS 020805Z 19008KT 18/13 A3013 RMK A01 T01770133  RH  078%=      5-min Rain = 0
KMUS 020810Z 19008KT 18/13 A3013 RMK A01 T01760133  RH  079%=      5-min Rain = 0
KMUS 020815Z 19007KT 18/13 A3013 RMK A01 T01750133  RH  079%=      5-min Rain = 0
KMUS 020820Z 18008KT 17/13 A3013 RMK A01 T01740134  RH  080%=      5-min Rain = 0
KMUS 020825Z 18007KT 17/13 A3012 RMK A01 T01740134  RH  080%=      5-min Rain = 0
KMUS 020830Z 18008KT 17/14 A3012 RMK A01 T01740135  RH  081%=      5-min Rain = 0
KMUS 020835Z 18009G14KT 17/14 A3012 RMK A01 T01740135  RH  081%=      5-min Rain = 0
KMUS 020840Z 18008KT 17/14 A3012 RMK A01 T01740135  RH  081%=      5-min Rain = 0
KMUS 020845Z 19007KT 17/14 A3012 RMK A01 T01730135  RH  082%=      5-min Rain = 0
KMUS 020850Z 19008KT 17/14 A3012 RMK A01 T01730136  RH  082%=      5-min Rain = 0
KMUS 020855Z 19009G14KT 18/14 A3012 RMK A01 T01750137  RH  082%=      5-min Rain = 0
KMUS 020900Z 18010KT 17/14 A3011 RMK A01 T01740137  RH  082%=      5-min Rain = 0
KMUS 020905Z 17011KT 17/14 A3011 RMK A01 T01740137  RH  082%=      5-min Rain = 0
KMUS 020910Z 17011KT 17/14 A3011 RMK A01 T01740138  RH  083%=      5-min Rain = 0
KMUS 020915Z 17011KT 17/14 A3011 RMK A01 T01730138  RH  083%=      5-min Rain = 0
KMUS 020920Z 18011G16KT 17/14 A3011 RMK A01 T01730138  RH  083%=      5-min Rain = 0
KMUS 020925Z 18011KT 17/14 A301 RMK A01 T01730138  RH  083%=      5-min Rain = 0
KMUS 020930Z 18011KT 17/14 A301 RMK A01 T01720138  RH  084%=      5-min Rain = 0
KMUS 020935Z 18012KT 17/14 A301 RMK A01 T01710138  RH  084%=      5-min Rain = 0
KMUS 020940Z 18011KT 17/14 A301 RMK A01 T01700138  RH  085%=      5-min Rain = 0
KMUS 020945Z 18010KT 17/14 A301 RMK A01 T01690138  RH  085%=      5-min Rain = 0
KMUS 020950Z 18011KT 17/14 A301 RMK A01 T01690138  RH  086%=      5-min Rain = 0
KMUS 020955Z 19009KT 17/14 A301 RMK A01 T01680138  RH  086%=      5-min Rain = 0
KMUS 021000Z 18010KT 17/14 A301 RMK A01 T01680138  RH  086%=      5-min Rain = 0
KMUS 021005Z 18011KT 17/14 A301 RMK A01 T01680138  RH  086%=      5-min Rain = 0
KMUS 021010Z 18011KT 17/14 A301 RMK A01 T01670139  RH  087%=      5-min Rain = 0
KMUS 021015Z 18010G15KT 17/14 A301 RMK A01 T01670139  RH  087%=      5-min Rain = 0
KMUS 021020Z 18011KT 17/14 A301 RMK A01 T01670139  RH  087%=      5-min Rain = 0
KMUS 021025Z 18010KT 17/14 A301 RMK A01 T01660139  RH  088%=      5-min Rain = 0
KMUS 021030Z 18011KT 17/14 A301 RMK A01 T01660139  RH  088%=      5-min Rain = 0
KMUS 021035Z 17011KT 17/14 A301 RMK A01 T01660140  RH  088%=      5-min Rain = 0
KMUS 021040Z 18011KT 17/14 A301 RMK A01 T01660140  RH  089%=      5-min Rain = 0
KMUS 021045Z 19009G14KT 17/14 A3011 RMK A01 T01650140  RH  089%=      5-min Rain = 0
KMUS 021050Z 20008KT 17/14 A3011 RMK A01 T01650140  RH  089%=      5-min Rain = 0
KMUS 021055Z 19008KT 16/14 A3011 RMK A01 T01640141  RH  090%=      5-min Rain = 0
KMUS 021100Z 19007G12KT 16/14 A3011 RMK A01 T01640140  RH  090%=      5-min Rain = 0
KMUS 021105Z 26006KT 16/14 A3012 RMK A01 T01620139  RH  090%=      5-min Rain = 0
KMUS 021110Z 26004KT 16/14 A3012 RMK A01 T01600138  RH  090%=      5-min Rain = 0
KMUS 021115Z 22005KT 16/14 A3012 RMK A01 T01590138  RH  091%=      5-min Rain = 0
KMUS 021120Z 21005KT 16/14 A3012 RMK A01 T01580137  RH  091%=      5-min Rain = 0
KMUS 021125Z 23004KT 16/14 A3012 RMK A01 T01560136  RH  092%=      5-min Rain = 0
KMUS 021130Z 25005KT 15/14 A3012 RMK A01 T01540135  RH  092%=      5-min Rain = 0
KMUS 021135Z 23003KT 15/13 A3012 RMK A01 T01520133  RH  092%=      5-min Rain = 0
KMUS 021140Z 25003KT 15/13 A3012 RMK A01 T01500132  RH  092%=      5-min Rain = 0
KMUS 021145Z 29003KT 15/13 A3013 RMK A01 T01480130  RH  093%=      5-min Rain = 0
KMUS 021150Z 28004KT 15/13 A3013 RMK A01 T01450128  RH  093%=      5-min Rain = 0
KMUS 021155Z 27003KT 14/13 A3013 RMK A01 T01430126  RH  093%=      5-min Rain = 0
KMUS 021200Z 27003KT 14/13 A3013 RMK A01 T01410125  RH  094%=      5-min Rain = 0
KMUS 021205Z 24002KT 14/13 A3013 RMK A01 T01400125  RH  094%=      5-min Rain = 0
KMUS 021210Z 25003KT 14/13 A3013 RMK A01 T01400125  RH  094%=      5-min Rain = 0
KMUS 021215Z 26003KT 14/13 A3013 RMK A01 T01420128  RH  095%=      5-min Rain = 0
KMUS 021220Z 20001KT 15/13 A3013 RMK A01 T01460132  RH  095%=      5-min Rain = 0
KMUS 021225Z 18002KT 15/14 A3014 RMK A01 T01490135  RH  095%=      5-min Rain = 0
KMUS 021230Z 19003KT 15/14 A3014 RMK A01 T01530139  RH  095%=      5-min Rain = 0
KMUS 021235Z 18005KT 16/14 A3014 RMK A01 T01570143  RH  095%=      5-min Rain = 0
KMUS 021240Z 18007KT 16/15 A3014 RMK A01 T01610145  RH  094%=      5-min Rain = 0
KMUS 021245Z 19008KT 16/15 A3014 RMK A01 T01640146  RH  093%=      5-min Rain = 0
KMUS 021250Z 20009KT 17/15 A3014 RMK A01 T01660147  RH  093%=      5-min Rain = 0
KMUS 021255Z 20009G14KT 17/15 A3014 RMK A01 T01690149  RH  092%=      5-min Rain = 0
KMUS 021300Z 20010KT 17/15 A3014 RMK A01 T01700150  RH  092%=      5-min Rain = 0
KMUS 021305Z 20010KT 17/15 A3014 RMK A01 T01710152  RH  093%=      5-min Rain = 0
KMUS 021310Z 19010KT 17/15 A3014 RMK A01 T01710152  RH  093%=      5-min Rain = 0
KMUS 021315Z 20009G14KT 17/16 A3015 RMK A01 T01740155  RH  092%=      5-min Rain = 0
KMUS 021320Z 21010KT 18/16 A3014 RMK A01 T01760155  RH  091%=      5-min Rain = 0
KMUS 021325Z 20011KT 18/16 A3014 RMK A01 T01800156  RH  090%=      5-min Rain = 0
KMUS 021330Z 20010KT 19/16 A3014 RMK A01 T01850157  RH  088%=      5-min Rain = 0
KMUS 021335Z 20009KT 19/16 A3014 RMK A01 T01890158  RH  086%=      5-min Rain = 0
KMUS 021340Z 20011KT 19/16 A3014 RMK A01 T01920156  RH  083%=      5-min Rain = 0
KMUS 021345Z 19010KT 19/16 A3014 RMK A01 T01940157  RH  083%=      5-min Rain = 0
KMUS 021350Z 20011KT 20/16 A3014 RMK A01 T01960155  RH  081%=      5-min Rain = 0
KMUS 021355Z 20010KT 20/16 A3014 RMK A01 T01970156  RH  081%=      5-min Rain = 0
KMUS 021400Z 20010KT 20/16 A3014 RMK A01 T02010156  RH  079%=      5-min Rain = 0
KMUS 021405Z 19009KT 21/16 A3014 RMK A01 T02050156  RH  077%=      5-min Rain = 0
KMUS 021410Z 19009KT 20/16 A3014 RMK A01 T02040156  RH  078%=      5-min Rain = 0
KMUS 021415Z 20009KT 21/16 A3014 RMK A01 T02080157  RH  076%=      5-min Rain = 0
KMUS 021420Z 20009KT 21/16 A3014 RMK A01 T02110157  RH  075%=      5-min Rain = 0
KMUS 021425Z 20009KT 21/16 A3014 RMK A01 T02140158  RH  074%=      5-min Rain = 0
KMUS 021430Z 21009KT 22/16 A3014 RMK A01 T02190158  RH  072%=      5-min Rain = 0
KMUS 021435Z 21009KT 22/16 A3014 RMK A01 T02200157  RH  071%=      5-min Rain = 0
KMUS 021440Z 22010KT 22/16 A3014 RMK A01 T02220157  RH  070%=      5-min Rain = 0
KMUS 021445Z 21011KT 22/16 A3014 RMK A01 T02230157  RH  069%=      5-min Rain = 0
KMUS 021450Z 20012KT 23/16 A3014 RMK A01 T02250156  RH  068%=      5-min Rain = 0
KMUS 021455Z 20011KT 23/16 A3014 RMK A01 T02250156  RH  068%=      5-min Rain = 0
KMUS 021500Z 20010KT 23/16 A3014 RMK A01 T02280156  RH  067%=      5-min Rain = 0
KMUS 021505Z 19010KT 23/16 A3014 RMK A01 T02290155  RH  066%=      5-min Rain = 0
KMUS 021510Z 20009KT 23/16 A3014 RMK A01 T02290155  RH  066%=      5-min Rain = 0
KMUS 021515Z 19010KT 23/16 A3014 RMK A01 T02310155  RH  065%=      5-min Rain = 0
KMUS 021520Z 21011KT 24/15 A3014 RMK A01 T02370154  RH  062%=      5-min Rain = 0
KMUS 021525Z 20011G16KT 24/15 A3014 RMK A01 T02360153  RH  062%=      5-min Rain = 0
KMUS 021530Z 21010KT 24/15 A3014 RMK A01 T02390153  RH  061%=      5-min Rain = 0
KMUS 021535Z 21012G18KT 24/15 A3014 RMK A01 T02420152  RH  060%=      5-min Rain = 0
KMUS 021540Z 21011G16KT 24/15 A3014 RMK A01 T02430151  RH  059%=      5-min Rain = 0
KMUS 021545Z 21010G15KT 25/15 A3013 RMK A01 T02460152  RH  058%=      5-min Rain = 0
KMUS 021550Z 20012KT 25/15 A3013 RMK A01 T02460151  RH  058%=      5-min Rain = 0
KMUS 021555Z 21010G17KT 25/15 A3013 RMK A01 T02470151  RH  058%=      5-min Rain = 0
KMUS 021600Z 21012KT 25/15 A3013 RMK A01 T02480150  RH  057%=      5-min Rain = 0
KMUS 021605Z 21010KT 25/15 A3013 RMK A01 T02520152  RH  056%=      5-min Rain = 0
KMUS 021610Z 21010KT 25/15 A3013 RMK A01 T02530149  RH  055%=      5-min Rain = 0
KMUS 021615Z 21010G17KT 26/15 A3013 RMK A01 T02570150  RH  054%=      5-min Rain = 0
KMUS 021620Z 20011G16KT 26/15 A3013 RMK A01 T02580148  RH  053%=      5-min Rain = 0
KMUS 021625Z 19011KT 26/15 A3013 RMK A01 T02570149  RH  053%=      5-min Rain = 0
KMUS 021630Z 19011KT 26/15 A3013 RMK A01 T02610148  RH  052%=      5-min Rain = 0
KMUS 021635Z 20009KT 26/15 A3013 RMK A01 T02610147  RH  051%=      5-min Rain = 0
KMUS 021640Z 20011G17KT 27/14 A3013 RMK A01 T02650144  RH  049%=      5-min Rain = 0
KMUS 021645Z 19009G14KT 27/15 A3012 RMK A01 T02650145  RH  050%=      5-min Rain = 0
KMUS 021650Z 22012KT 27/14 A3012 RMK A01 T02690143  RH  048%=      5-min Rain = 0
KMUS 021655Z 21011G16KT 27/14 A3012 RMK A01 T02690140  RH  047%=      5-min Rain = 0
KMUS 021700Z 20012KT 27/14 A3012 RMK A01 T02700142  RH  047%=      5-min Rain = 0
KMUS 021705Z 21010KT 27/14 A3012 RMK A01 T02720140  RH  046%=      5-min Rain = 0
KMUS 021710Z 21010G17KT 27/14 A3012 RMK A01 T02730139  RH  046%=      5-min Rain = 0
KMUS 021715Z 21010G15KT 27/14 A3012 RMK A01 T02730140  RH  046%=      5-min Rain = 0
KMUS 021720Z 21009G14KT 28/14 A3012 RMK A01 T02750139  RH  045%=      5-min Rain = 0
KMUS 021725Z 20010G17KT 28/14 A3012 RMK A01 T02770138  RH  044%=      5-min Rain = 0
KMUS 021730Z 19010G15KT 29/14 A3012 RMK A01 T02850137  RH  042%=      5-min Rain = 0
KMUS 021735Z 20008KT 28/13 A3012 RMK A01 T02810134  RH  042%=      5-min Rain = 0
KMUS 021740Z 16009G15KT 28/13 A3011 RMK A01 T02810131  RH  041%=      5-min Rain = 0
KMUS 021745Z 16010G15KT 28/13 A3011 RMK A01 T02840131  RH  041%=      5-min Rain = 0
KMUS 021750Z 17010KT 28/13 A3011 RMK A01 T02840128  RH  040%=      5-min Rain = 0
KMUS 021755Z 19011G16KT 29/13 A3011 RMK A01 T02880130  RH  039%=      5-min Rain = 0
KMUS 021800Z 20008G14KT 29/13 A3011 RMK A01 T02860131  RH  040%=      5-min Rain = 0
KMUS 021805Z 18010G15KT 29/12 A3011 RMK A01 T02870122  RH  037%=      5-min Rain = 0
KMUS 021810Z 20008KT 29/13 A3011 RMK A01 T02880125  RH  038%=      5-min Rain = 0
KMUS 021815Z 16009KT 29/12 A3011 RMK A01 T02930121  RH  036%=      5-min Rain = 0
KMUS 021820Z 20010G15KT 30/12 A301 RMK A01 T02960120  RH  035%=      5-min Rain = 0
KMUS 021825Z 17006G13KT 29/12 A3011 RMK A01 T02920118  RH  035%=      5-min Rain = 0
KMUS 021830Z 17009G14KT 29/11 A301 RMK A01 T02910111  RH  034%=      5-min Rain = 0
KMUS 021835Z 19007G16KT 29/11 A301 RMK A01 T02930108  RH  033%=      5-min Rain = 0
KMUS 021840Z 20005G13KT 30/11 A301 RMK A01 T02970111  RH  033%=      5-min Rain = 0
KMUS 021845Z 19008G14KT 30/11 A301 RMK A01 T03030113  RH  032%=      5-min Rain = 0
KMUS 021850Z 18010KT 30/10 A301 RMK A01 T03030103  RH  030%=      5-min Rain = 0
KMUS 021855Z 15006KT 30/11 A301 RMK A01 T02970105  RH  031%=      5-min Rain = 0
KMUS 021900Z 17006G14KT 29/11 A3009 RMK A01 T02940106  RH  032%=      5-min Rain = 0
KMUS 021905Z 13008G13KT 30/10 A3009 RMK A01 T03010100  RH  030%=      5-min Rain = 0
KMUS 021910Z 17006KT 30/10 A3009 RMK A01 T03020099  RH  029%=      5-min Rain = 0
KMUS 021915Z 19008G16KT 30/10 A3009 RMK A01 T03030104  RH  030%=      5-min Rain = 0
KMUS 021920Z 20009G14KT 31/10 A3009 RMK A01 T03090096  RH  028%=      5-min Rain = 0
KMUS 021925Z 12005KT 31/10 A3009 RMK A01 T03070096  RH  028%=      5-min Rain = 0
KMUS 021930Z 25002KT 30/10 A3008 RMK A01 T03000099  RH  030%=      5-min Rain = 0
KMUS 021935Z 18003KT 30/10 A3008 RMK A01 T03040098  RH  029%=      5-min Rain = 0
KMUS 021940Z 14005G12KT 31/10 A3008 RMK A01 T03080100  RH  029%=      5-min Rain = 0
KMUS 021945Z 13009G14KT 31/10 A3008 RMK A01 T03080095  RH  027%=      5-min Rain = 0
KMUS 021950Z 15007G12KT 31/09 A3008 RMK A01 T03060088  RH  027%=      5-min Rain = 0
KMUS 021955Z 11006G12KT 31/09 A3008 RMK A01 T03080088  RH  026%=      5-min Rain = 0
KMUS 022000Z 24004KT 31/09 A3007 RMK A01 T03050091  RH  027%=      5-min Rain = 0
KMUS 022005Z 20008G13KT 31/09 A3007 RMK A01 T03090094  RH  027%=      5-min Rain = 0
KMUS 022010Z 20008G13KT 32/09 A3007 RMK A01 T03150089  RH  025%=      5-min Rain = 0
KMUS 022015Z 23004G9KT 31/09 A3007 RMK A01 T03110086  RH  025%=      5-min Rain = 0
KMUS 022020Z 22006G13KT 31/09 A3006 RMK A01 T03100088  RH  026%=      5-min Rain = 0
KMUS 022025Z 18011KT 32/08 A3006 RMK A01 T03150082  RH  024%=      5-min Rain = 0
KMUS 022030Z 17007G13KT 32/08 A3006 RMK A01 T03150078  RH  023%=      5-min Rain = 0
KMUS 022035Z 16005G10KT 32/08 A3006 RMK A01 T03170075  RH  023%=      5-min Rain = 0
KMUS 022040Z 21004G9KT 31/07 A3006 RMK A01 T03140074  RH  023%=      5-min Rain = 0
KMUS 022045Z 19008G17KT 32/08 A3005 RMK A01 T03160076  RH  023%=      5-min Rain = 0
KMUS 022050Z 19007G14KT 32/08 A3006 RMK A01 T03190077  RH  023%=      5-min Rain = 0
KMUS 022055Z 18007G14KT 32/07 A3006 RMK A01 T03190073  RH  022%=      5-min Rain = 0
KMUS 022100Z 15003G10KT 32/08 A3005 RMK A01 T03170075  RH  023%=      5-min Rain = 0
KMUS 022105Z 17007G13KT 32/08 A3005 RMK A01 T03200083  RH  024%=      5-min Rain = 0
KMUS 022110Z 18003G9KT 32/08 A3005 RMK A01 T03170081  RH  024%=      5-min Rain = 0
KMUS 022115Z 14010KT 32/09 A3005 RMK A01 T03160087  RH  025%=      5-min Rain = 0
KMUS 022120Z 16008G14KT 32/09 A3005 RMK A01 T03170085  RH  024%=      5-min Rain = 0
KMUS 022125Z 14006G11KT 31/08 A3004 RMK A01 T03100083  RH  025%=      5-min Rain = 0
KMUS 022130Z 15009G15KT 32/08 A3004 RMK A01 T03150079  RH  024%=      5-min Rain = 0
KMUS 022135Z 13009G15KT 32/08 A3004 RMK A01 T03170077  RH  023%=      5-min Rain = 0
KMUS 022140Z 12009G14KT 32/07 A3004 RMK A01 T03230073  RH  022%=      5-min Rain = 0
KMUS 022145Z 16008KT 32/08 A3004 RMK A01 T03220079  RH  023%=      5-min Rain = 0
KMUS 022150Z 16006G14KT 32/08 A3003 RMK A01 T03200081  RH  023%=      5-min Rain = 0
KMUS 022155Z 13008G13KT 32/08 A3003 RMK A01 T03200083  RH  024%=      5-min Rain = 0
KMUS 022200Z 18009KT 32/08 A3003 RMK A01 T03210081  RH  023%=      5-min Rain = 0
KMUS 022205Z 20007KT 32/08 A3003 RMK A01 T03210080  RH  023%=      5-min Rain = 0
KMUS 022210Z 23005G10KT 32/08 A3003 RMK A01 T03200077  RH  023%=      5-min Rain = 0
KMUS 022215Z 23005G12KT 32/08 A3002 RMK A01 T03210079  RH  023%=      5-min Rain = 0
KMUS 022220Z 18009G14KT 33/08 A3002 RMK A01 T03250079  RH  022%=      5-min Rain = 0
KMUS 022225Z 20011KT 33/08 A3002 RMK A01 T03250081  RH  023%=      5-min Rain = 0
KMUS 022230Z 20009G15KT 32/08 A3002 RMK A01 T03210079  RH  023%=      5-min Rain = 0
KMUS 022235Z 18006KT 32/08 A3002 RMK A01 T03200077  RH  023%=      5-min Rain = 0
KMUS 022240Z 18009KT 32/08 A3002 RMK A01 T03230077  RH  022%=      5-min Rain = 0
KMUS 022245Z 16010G18KT 32/08 A3001 RMK A01 T03230078  RH  022%=      5-min Rain = 0
KMUS 022250Z 16011G16KT 32/08 A3001 RMK A01 T03240083  RH  023%=      5-min Rain = 0
KMUS 022255Z 15010G15KT 32/08 A3001 RMK A01 T03230083  RH  023%=      5-min Rain = 0
KMUS 022300Z 15008G13KT 32/08 A3001 RMK A01 T03160083  RH  024%=      5-min Rain = 0
KMUS 022305Z 17010G15KT 32/08 A3001 RMK A01 T03160082  RH  024%=      5-min Rain = 0
KMUS 022310Z 17007KT 32/08 A3001 RMK A01 T03180081  RH  024%=      5-min Rain = 0
KMUS 022315Z 16008KT 32/08 A3001 RMK A01 T03210080  RH  023%=      5-min Rain = 0
KMUS 022320Z 16007KT 31/08 A3001 RMK A01 T03130079  RH  024%=      5-min Rain = 0
KMUS 022325Z 15008G13KT 31/08 A3001 RMK A01 T03080080  RH  025%=      5-min Rain = 0
KMUS 022330Z 17008G13KT 32/08 A3001 RMK A01 T03150078  RH  023%=      5-min Rain = 0
KMUS 022335Z 15007KT 32/08 A3001 RMK A01 T03190079  RH  023%=      5-min Rain = 0
KMUS 022340Z 15007G12KT 32/08 A3001 RMK A01 T03190081  RH  024%=      5-min Rain = 0
KMUS 022345Z 19008G15KT 32/08 A3001 RMK A01 T03200081  RH  023%=      5-min Rain = 0
KMUS 022350Z 18010KT 32/08 A3001 RMK A01 T03180082  RH  024%=      5-min Rain = 0
KMUS 022355Z 21007KT 32/08 A3001 RMK A01 T03180083  RH  024%=      5-min Rain = 0
KMUS 030000Z 18006KT 32/08 A3001 RMK A01 T03180083  RH  024%=      5-min Rain = 0
KMUS 030005Z 18008G13KT 32/08 A3001 RMK A01 T03180080  RH  023%=      5-min Rain = 0
KMUS 030010Z 16007KT 32/08 A3001 RMK A01 T03170079  RH  023%=      5-min Rain = 0
KMUS 030015Z 15005KT 32/08 A3001 RMK A01 T03160080  RH  024%=      5-min Rain = 0
KMUS 030020Z 18006G12KT 32/08 A3001 RMK A01 T03180078  RH  023%=      5-min Rain = 0
KMUS 030025Z 18007KT 32/08 A3001 RMK A01 T03160078  RH  023%=      5-min Rain = 0
KMUS 030030Z 17008KT 32/08 A3001 RMK A01 T03150081  RH  024%=      5-min Rain = 0
KMUS 030035Z 15010KT 31/09 A3001 RMK A01 T03130085  RH  025%=      5-min Rain = 0
KMUS 030040Z 16010KT 31/08 A3001 RMK A01 T03120084  RH  025%=      5-min Rain = 0
KMUS 030045Z 15008G13KT 31/09 A3002 RMK A01 T03110085  RH  025%=      5-min Rain = 0
KMUS 030050Z 15007KT 31/09 A3002 RMK A01 T03090085  RH  026%=      5-min Rain = 0
KMUS 030055Z 15009KT 31/09 A3002 RMK A01 T03080089  RH  026%=      5-min Rain = 0
KMUS 030100Z 15011KT 31/09 A3002 RMK A01 T03050088  RH  027%=      5-min Rain = 0
KMUS 030105Z 14009KT 30/09 A3002 RMK A01 T03030089  RH  027%=      5-min Rain = 0
KMUS 030110Z 14009KT 30/09 A3002 RMK A01 T03010090  RH  028%=      5-min Rain = 0
KMUS 030115Z 12010KT 30/09 A3002 RMK A01 T02990092  RH  028%=      5-min Rain = 0
KMUS 030120Z 16009KT 30/09 A3003 RMK A01 T02960089  RH  028%=      5-min Rain = 0
KMUS 030125Z 16009KT 29/09 A3003 RMK A01 T02940089  RH  029%=      5-min Rain = 0
KMUS 030130Z 15008KT 29/09 A3003 RMK A01 T02910093  RH  030%=      5-min Rain = 0
KMUS 030135Z 15009KT 29/09 A3003 RMK A01 T02860093  RH  031%=      5-min Rain = 0
KMUS 030140Z 15009KT 28/09 A3003 RMK A01 T02830093  RH  031%=      5-min Rain = 0
KMUS 030145Z 15008KT 28/10 A3003 RMK A01 T02800095  RH  032%=      5-min Rain = 0
KMUS 030150Z 16008KT 28/10 A3003 RMK A01 T02760095  RH  033%=      5-min Rain = 0
KMUS 030155Z 15008KT 27/09 A3003 RMK A01 T02730094  RH  033%=      5-min Rain = 0
KMUS 030200Z 15008KT 27/10 A3003 RMK A01 T02700097  RH  035%=      5-min Rain = 0
KMUS 030205Z 15008KT 27/10 A3003 RMK A01 T02660098  RH  036%=      5-min Rain = 0
KMUS 030210Z 15008KT 26/10 A3003 RMK A01 T02630100  RH  037%=      5-min Rain = 0
KMUS 030215Z 14008KT 26/10 A3003 RMK A01 T02590101  RH  038%=      5-min Rain = 0
KMUS 030220Z 14009KT 26/10 A3004 RMK A01 T02570102  RH  039%=      5-min Rain = 0
KMUS 030225Z 14007KT 26/10 A3004 RMK A01 T02570103  RH  039%=      5-min Rain = 0
KMUS 030230Z 14007KT 26/10 A3004 RMK A01 T02550103  RH  040%=      5-min Rain = 0
KMUS 030235Z 14008KT 25/10 A3005 RMK A01 T02540104  RH  040%=      5-min Rain = 0
KMUS 030240Z 14008KT 25/10 A3005 RMK A01 T02520104  RH  041%=      5-min Rain = 0
KMUS 030245Z 14008KT 25/11 A3005 RMK A01 T02500106  RH  042%=      5-min Rain = 0
KMUS 030250Z 14008KT 25/11 A3005 RMK A01 T02480106  RH  042%=      5-min Rain = 0
KMUS 030255Z 14007KT 25/11 A3006 RMK A01 T02470106  RH  042%=      5-min Rain = 0
KMUS 030300Z 14008KT 25/11 A3006 RMK A01 T02460106  RH  043%=      5-min Rain = 0
KMUS 030305Z 14008KT 24/11 A3006 RMK A01 T02440107  RH  044%=      5-min Rain = 0
KMUS 030310Z 14008KT 24/11 A3006 RMK A01 T02420108  RH  044%=      5-min Rain = 0
KMUS 030315Z 15009KT 24/11 A3006 RMK A01 T02420109  RH  045%=      5-min Rain = 0
KMUS 030320Z 14009KT 24/11 A3007 RMK A01 T02420109  RH  045%=      5-min Rain = 0
KMUS 030325Z 14010KT 24/11 A3007 RMK A01 T02440109  RH  044%=      5-min Rain = 0
KMUS 030330Z 14011G16KT 25/11 A3007 RMK A01 T02470111  RH  044%=      5-min Rain = 0
KMUS 030335Z 14013KT 25/12 A3007 RMK A01 T02500117  RH  045%=      5-min Rain = 0
KMUS 030340Z 15012KT 25/12 A3008 RMK A01 T02490119  RH  046%=      5-min Rain = 0
KMUS 030345Z 14012KT 25/12 A3008 RMK A01 T02470122  RH  047%=      5-min Rain = 0
KMUS 030350Z 14013KT 25/13 A3008 RMK A01 T02460125  RH  049%=      5-min Rain = 0
KMUS 030355Z 15012KT 25/13 A3008 RMK A01 T02450127  RH  049%=      5-min Rain = 0
KMUS 030400Z 15012KT 24/13 A3008 RMK A01 T02440128  RH  050%=      5-min Rain = 0
KMUS 030405Z 15012G17KT 24/13 A3008 RMK A01 T02430129  RH  051%=      5-min Rain = 0
KMUS 030410Z 15013KT 24/13 A3008 RMK A01 T02430130  RH  051%=      5-min Rain = 0
KMUS 030415Z 15012KT 24/13 A3008 RMK A01 T02410131  RH  052%=      5-min Rain = 0
KMUS 030420Z 15011KT 24/13 A3009 RMK A01 T02400131  RH  053%=      5-min Rain = 0
KMUS 030425Z 15010KT 24/13 A3009 RMK A01 T02380132  RH  053%=      5-min Rain = 0
KMUS 030430Z 15012KT 24/13 A3009 RMK A01 T02380132  RH  054%=      5-min Rain = 0
KMUS 030435Z 15013G18KT 24/13 A3009 RMK A01 T02390132  RH  053%=      5-min Rain = 0
KMUS 030440Z 15014KT 24/13 A3009 RMK A01 T02390132  RH  053%=      5-min Rain = 0
KMUS 030445Z 15012KT 24/13 A3009 RMK A01 T02380132  RH  054%=      5-min Rain = 0
KMUS 030450Z 15011KT 24/13 A3009 RMK A01 T02360132  RH  054%=      5-min Rain = 0
KMUS 030455Z 15011KT 24/13 A3009 RMK A01 T02350132  RH  055%=      5-min Rain = 0

Page generated in 0.0093 seconds.